createdAt,value
2018-10-06T00:01:23.253Z,53.94
2018-10-06T00:03:51.571Z,54.29
2018-10-06T00:06:19.824Z,54.05
2018-10-06T00:08:48.176Z,53.87
2018-10-06T00:11:16.683Z,53.62
2018-10-06T00:13:45.184Z,53.31
2018-10-06T00:16:14.317Z,53.95
2018-10-06T00:18:42.564Z,54.41
2018-10-06T00:21:11.100Z,54.04
2018-10-06T00:23:39.401Z,53.77
2018-10-06T00:26:07.927Z,53.90
2018-10-06T00:28:36.291Z,54.63
2018-10-06T00:31:04.569Z,54.76
2018-10-06T00:33:33.064Z,54.31
2018-10-06T00:36:01.506Z,54.34
2018-10-06T00:38:29.899Z,53.94
2018-10-06T00:40:58.213Z,54.56
2018-10-06T00:43:26.542Z,54.10
2018-10-06T00:45:54.812Z,53.70
2018-10-06T00:48:23.122Z,53.66
2018-10-06T00:50:51.541Z,54.49
2018-10-06T00:53:19.938Z,54.22
2018-10-06T00:55:48.275Z,53.74
2018-10-06T00:58:16.577Z,54.07
2018-10-06T01:00:44.924Z,53.96
2018-10-06T01:03:13.243Z,54.58
2018-10-06T01:05:41.556Z,53.54
2018-10-06T01:08:09.997Z,53.68
2018-10-06T01:10:38.333Z,54.33
2018-10-06T01:13:06.695Z,54.52
2018-10-06T01:15:35.092Z,54.82
2018-10-06T01:18:03.514Z,54.08
2018-10-06T01:20:31.817Z,55.39
2018-10-06T01:23:00.276Z,54.12
2018-10-06T01:25:28.577Z,55.59
2018-10-06T01:27:57.003Z,55.60
2018-10-06T01:30:25.345Z,55.46
2018-10-06T01:32:53.673Z,54.27
2018-10-06T01:35:21.959Z,54.14
2018-10-06T01:37:50.371Z,55.92
2018-10-06T01:40:18.820Z,55.69
2018-10-06T01:42:47.106Z,53.85
2018-10-06T01:45:15.440Z,54.84
2018-10-06T01:47:43.768Z,56.31
2018-10-06T01:50:12.099Z,57.52
2018-10-06T01:52:40.453Z,56.82
2018-10-06T01:55:08.730Z,56.53
2018-10-06T01:57:37.009Z,56.42
2018-10-06T02:00:05.340Z,57.15
2018-10-06T02:02:33.702Z,57.19
2018-10-06T02:05:01.995Z,56.59
2018-10-06T02:07:30.388Z,56.75
2018-10-06T02:10:00.190Z,56.13
2018-10-06T02:12:28.674Z,56.96
2018-10-06T02:14:57.151Z,57.09
2018-10-06T02:17:25.449Z,55.89
2018-10-06T02:19:53.729Z,60.05
2018-10-06T02:22:22.304Z,59.23
2018-10-06T02:24:50.614Z,56.87
2018-10-06T02:27:18.963Z,58.61
2018-10-06T02:29:47.289Z,59.25
2018-10-06T02:32:15.606Z,60.05
2018-10-06T02:34:43.945Z,57.92
2018-10-06T02:37:12.246Z,59.07
2018-10-06T02:39:40.673Z,56.96
2018-10-06T02:42:08.960Z,57.31
2018-10-06T02:44:37.309Z,56.55
2018-10-06T02:47:05.741Z,55.71
2018-10-06T02:49:34.186Z,55.37
2018-10-06T02:52:02.491Z,56.10
2018-10-06T02:54:31.116Z,56.17
2018-10-06T02:56:59.418Z,54.73
2018-10-06T02:59:27.745Z,55.76
2018-10-06T03:01:56.240Z,55.56
2018-10-06T03:04:24.523Z,55.57
2018-10-06T03:06:52.856Z,55.56
2018-10-06T03:09:21.306Z,57.24
2018-10-06T03:11:49.785Z,56.21
2018-10-06T03:14:18.137Z,55.97
2018-10-06T03:16:46.560Z,55.21
2018-10-06T03:19:14.847Z,55.56
2018-10-06T03:21:43.125Z,54.80
2018-10-06T03:24:11.501Z,55.19
2018-10-06T03:26:39.817Z,56.32
2018-10-06T03:29:08.140Z,56.36
2018-10-06T03:31:36.464Z,55.84
2018-10-06T03:34:04.783Z,55.68
2018-10-06T03:36:33.104Z,56.30
2018-10-06T03:39:01.536Z,56.49
2018-10-06T03:41:29.834Z,58.05
2018-10-06T03:43:58.260Z,57.99
2018-10-06T03:46:26.538Z,57.45
2018-10-06T03:48:54.825Z,57.81
2018-10-06T03:51:23.199Z,58.65
2018-10-06T03:53:51.514Z,57.29
2018-10-06T03:56:19.815Z,56.62
2018-10-06T03:58:48.235Z,55.57
2018-10-06T04:01:16.566Z,56.21
2018-10-06T04:03:44.892Z,57.48
2018-10-06T04:06:13.270Z,56.93
2018-10-06T04:08:41.573Z,58.05
2018-10-06T04:11:10.059Z,57.28
2018-10-06T04:13:38.345Z,58.65
2018-10-06T04:16:06.792Z,57.29
2018-10-06T04:18:35.056Z,57.34
2018-10-06T04:21:03.408Z,57.59
2018-10-06T04:23:31.685Z,57.96
2018-10-06T04:26:00.085Z,56.70
2018-10-06T04:28:28.502Z,57.21
2018-10-06T04:30:56.741Z,56.72
2018-10-06T04:33:25.106Z,57.27
2018-10-06T04:35:53.393Z,56.24
2018-10-06T04:38:21.699Z,55.99
2018-10-06T04:40:50.058Z,56.66
2018-10-06T04:43:18.568Z,56.55
2018-10-06T04:45:46.867Z,57.11
2018-10-06T04:48:15.185Z,55.69
2018-10-06T04:50:43.490Z,56.18
2018-10-06T04:53:11.939Z,58.02
2018-10-06T04:55:40.198Z,57.72
2018-10-06T04:58:08.513Z,57.41
2018-10-06T05:00:37.158Z,57.74
2018-10-06T05:03:05.437Z,58.12
2018-10-06T05:05:33.733Z,57.44
2018-10-06T05:08:02.053Z,57.35
2018-10-06T05:10:30.488Z,57.64
2018-10-06T05:12:58.780Z,57.40
2018-10-06T05:15:27.202Z,56.67
2018-10-06T05:17:55.654Z,56.60
2018-10-06T05:20:23.921Z,56.03
2018-10-06T05:22:52.252Z,56.09
2018-10-06T05:25:20.668Z,55.68
2018-10-06T05:27:48.928Z,56.43
2018-10-06T05:30:17.360Z,57.53
2018-10-06T05:32:45.670Z,58.13
2018-10-06T05:35:13.973Z,57.93
2018-10-06T05:37:42.244Z,59.33
2018-10-06T05:40:10.609Z,57.56
2018-10-06T05:42:38.913Z,58.15
2018-10-06T05:45:07.372Z,57.75
2018-10-06T05:47:35.678Z,57.64
2018-10-06T05:50:04.082Z,57.54
2018-10-06T05:52:32.442Z,56.09
2018-10-06T05:55:00.729Z,56.52
2018-10-06T05:57:29.043Z,55.79
2018-10-06T05:59:57.353Z,54.97
2018-10-06T06:02:25.798Z,56.78
2018-10-06T06:04:54.099Z,55.83
2018-10-06T06:07:22.502Z,56.37
2018-10-06T06:09:50.936Z,56.20
2018-10-06T06:12:19.238Z,55.64
2018-10-06T06:14:47.695Z,56.47
2018-10-06T06:17:16.088Z,57.02
2018-10-06T06:19:44.399Z,57.03
2018-10-06T06:22:12.818Z,56.49
2018-10-06T06:24:41.117Z,58.36
2018-10-06T06:27:09.492Z,58.24
2018-10-06T06:29:37.947Z,56.27
2018-10-06T06:32:06.449Z,55.01
2018-10-06T06:34:35.604Z,55.77
2018-10-06T06:37:04.096Z,55.07
2018-10-06T06:39:32.586Z,55.57
2018-10-06T06:42:01.038Z,54.92
2018-10-06T06:44:29.480Z,55.10
2018-10-06T06:46:57.688Z,54.97
2018-10-06T06:49:25.997Z,54.00
2018-10-06T06:51:54.457Z,53.45
2018-10-06T06:54:22.809Z,53.38
2018-10-06T06:56:51.246Z,53.72
2018-10-06T06:59:19.585Z,51.92
2018-10-06T07:01:47.973Z,51.82
2018-10-06T07:04:16.308Z,51.90
2018-10-06T07:06:44.677Z,50.93
2018-10-06T07:09:12.969Z,50.34
2018-10-06T07:11:47.744Z,50.40
2018-10-06T07:14:16.115Z,50.30
2018-10-06T07:16:44.411Z,50.04
2018-10-06T07:19:13.541Z,50.32
2018-10-06T07:21:41.828Z,50.02
2018-10-06T07:24:10.223Z,51.79
2018-10-06T07:26:38.615Z,51.04
2018-10-06T07:29:07.067Z,50.28
2018-10-06T07:31:35.611Z,51.30
2018-10-06T07:34:03.915Z,51.02
2018-10-06T07:36:32.305Z,51.13
2018-10-06T07:39:00.632Z,49.33
2018-10-06T07:41:28.964Z,50.56
2018-10-06T07:43:58.181Z,50.46
2018-10-06T07:46:26.606Z,49.57
2018-10-06T07:48:55.046Z,49.42
2018-10-06T07:51:23.459Z,50.22
2018-10-06T07:53:51.791Z,50.38
2018-10-06T07:56:20.206Z,50.30
2018-10-06T07:58:48.498Z,50.99
2018-10-06T08:01:16.901Z,48.89
2018-10-06T08:03:45.343Z,48.09
2018-10-06T08:06:13.639Z,48.90
2018-10-06T08:08:41.989Z,48.48
2018-10-06T08:11:10.351Z,46.74
2018-10-06T08:13:38.698Z,45.76
2018-10-06T08:16:08.661Z,46.80
2018-10-06T08:18:37.043Z,45.30
2018-10-06T08:21:05.489Z,43.98
2018-10-06T08:23:34.160Z,42.91
2018-10-06T08:26:02.790Z,43.16
2018-10-06T08:28:31.157Z,44.50
2018-10-06T08:30:59.552Z,42.92
2018-10-06T08:33:27.956Z,41.97
2018-10-06T08:35:56.677Z,42.18
2018-10-06T08:38:25.095Z,40.57
2018-10-06T08:40:53.515Z,41.01
2018-10-06T08:43:21.960Z,39.11
2018-10-06T08:45:50.246Z,39.64
2018-10-06T08:48:18.539Z,40.47
2018-10-06T08:50:47.009Z,39.72
2018-10-06T08:53:15.449Z,39.78
2018-10-06T08:55:43.779Z,39.96
2018-10-06T08:58:12.161Z,39.56
2018-10-06T09:00:40.616Z,38.08
2018-10-06T09:03:09.246Z,37.66
2018-10-06T09:05:37.542Z,37.03
2018-10-06T09:08:06.096Z,36.43
2018-10-06T09:10:34.550Z,36.34
2018-10-06T09:13:02.869Z,36.04
2018-10-06T09:15:31.122Z,35.49
2018-10-06T09:17:59.489Z,35.34
2018-10-06T09:20:27.816Z,34.62
2018-10-06T09:22:56.124Z,34.79
2018-10-06T09:25:24.660Z,34.43
2018-10-06T09:27:53.109Z,33.97
2018-10-06T09:30:21.388Z,33.41
2018-10-06T09:32:49.672Z,33.24
2018-10-06T09:35:17.928Z,31.63
2018-10-06T09:37:46.196Z,31.94
2018-10-06T09:40:15.384Z,31.47
2018-10-06T09:42:43.841Z,30.78
2018-10-06T09:45:12.097Z,31.10
2018-10-06T09:47:40.409Z,31.55
2018-10-06T09:50:09.032Z,32.38
2018-10-06T09:52:37.456Z,31.79
2018-10-06T09:55:05.824Z,32.02
2018-10-06T09:57:34.344Z,32.69
2018-10-06T10:00:02.675Z,32.15
2018-10-06T10:02:36.304Z,30.71
2018-10-06T10:05:10.783Z,32.64
2018-10-06T10:07:39.176Z,32.62
2018-10-06T10:10:07.877Z,31.82
2018-10-06T10:12:36.401Z,31.77
2018-10-06T10:15:04.616Z,30.42
2018-10-06T10:17:33.002Z,31.47
2018-10-06T10:20:02.025Z,31.12
2018-10-06T10:22:30.542Z,30.24
2018-10-06T10:24:58.651Z,29.67
2018-10-06T10:27:27.040Z,29.74
2018-10-06T10:29:55.345Z,30.43
2018-10-06T10:32:23.845Z,29.19
2018-10-06T10:34:54.540Z,28.72
2018-10-06T10:37:23.219Z,29.45
2018-10-06T10:39:51.989Z,28.58
2018-10-06T10:42:20.253Z,28.50
2018-10-06T10:44:48.663Z,27.84
2018-10-06T10:47:17.117Z,26.99
2018-10-06T10:49:45.424Z,27.18
2018-10-06T10:52:13.777Z,27.77
2018-10-06T10:54:44.555Z,28.02
2018-10-06T10:57:13.388Z,27.98
2018-10-06T10:59:41.790Z,27.57
2018-10-06T11:02:10.191Z,26.48
2018-10-06T11:04:38.853Z,26.77
2018-10-06T11:07:07.576Z,26.58
2018-10-06T11:09:36.120Z,25.59
2018-10-06T11:12:04.479Z,25.10
2018-10-06T11:14:33.786Z,24.85
2018-10-06T11:17:02.201Z,25.75
2018-10-06T11:19:33.497Z,25.40
2018-10-06T11:22:01.774Z,25.42
2018-10-06T11:24:32.265Z,24.80
2018-10-06T11:27:02.496Z,24.38
2018-10-06T11:29:31.390Z,24.12
2018-10-06T11:32:01.640Z,23.02
2018-10-06T11:34:30.324Z,23.04
2018-10-06T11:36:58.583Z,24.23
2018-10-06T11:39:26.954Z,23.02
2018-10-06T11:41:55.260Z,23.63
2018-10-06T11:44:23.569Z,24.50
2018-10-06T11:46:51.840Z,24.48
2018-10-06T11:49:20.201Z,24.88
2018-10-06T11:51:48.498Z,24.30
2018-10-06T11:54:16.809Z,23.15
2018-10-06T11:56:45.173Z,23.29
2018-10-06T11:59:13.510Z,23.51
2018-10-06T12:01:41.917Z,23.07
2018-10-06T12:04:10.231Z,23.84
2018-10-06T12:06:38.559Z,22.36
2018-10-06T12:09:08.022Z,23.02
2018-10-06T12:11:36.695Z,23.29
2018-10-06T12:14:05.179Z,23.40
2018-10-06T12:16:33.510Z,23.37
2018-10-06T12:19:01.900Z,23.84
2018-10-06T12:21:30.706Z,23.55
2018-10-06T12:23:59.159Z,24.72
2018-10-06T12:26:27.487Z,24.64
2018-10-06T12:28:55.783Z,24.60
2018-10-06T12:31:24.170Z,24.52
2018-10-06T12:33:52.391Z,23.69
2018-10-06T12:36:20.756Z,24.40
2018-10-06T12:38:49.149Z,26.26
2018-10-06T12:41:17.571Z,25.55
2018-10-06T12:43:45.813Z,25.39
2018-10-06T12:46:14.083Z,24.23
2018-10-06T12:48:42.367Z,23.98
2018-10-06T12:51:10.589Z,24.43
2018-10-06T12:53:38.918Z,24.60
2018-10-06T12:56:07.898Z,24.56
2018-10-06T12:58:36.388Z,24.04
2018-10-06T13:01:04.716Z,25.01
2018-10-06T13:03:33.001Z,24.24
2018-10-06T13:06:01.345Z,24.22
2018-10-06T13:08:29.622Z,24.14
2018-10-06T13:10:57.939Z,23.43
2018-10-06T13:13:26.379Z,23.75
2018-10-06T13:15:54.656Z,23.71
2018-10-06T13:18:22.988Z,22.99
2018-10-06T13:20:51.289Z,22.93
2018-10-06T13:23:19.599Z,23.50
2018-10-06T13:25:47.870Z,23.08
2018-10-06T13:28:16.182Z,23.05
2018-10-06T13:30:44.446Z,22.72
2018-10-06T13:33:12.824Z,23.38
2018-10-06T13:35:41.178Z,23.52
2018-10-06T13:38:09.541Z,23.15
2018-10-06T13:40:37.861Z,23.55
2018-10-06T13:43:06.171Z,24.66
2018-10-06T13:45:34.518Z,23.68
2018-10-06T13:48:02.820Z,22.61
2018-10-06T13:50:31.312Z,23.34
2018-10-06T13:52:59.576Z,21.75
2018-10-06T13:55:27.867Z,21.03
2018-10-06T13:57:56.224Z,21.33
2018-10-06T14:00:24.467Z,20.23
2018-10-06T14:02:52.869Z,21.02
2018-10-06T14:05:21.256Z,21.72
2018-10-06T14:07:49.592Z,21.20
2018-10-06T14:10:18.440Z,21.50
2018-10-06T14:12:46.940Z,20.80
2018-10-06T14:15:15.321Z,21.98
2018-10-06T14:17:43.586Z,23.56
2018-10-06T14:20:11.987Z,22.34
2018-10-06T14:22:40.272Z,21.92
2018-10-06T14:25:08.610Z,21.51
2018-10-06T14:27:36.909Z,22.82
2018-10-06T14:30:05.235Z,22.88
2018-10-06T14:32:33.517Z,23.74
2018-10-06T14:35:01.841Z,23.36
2018-10-06T14:37:30.194Z,24.73
2018-10-06T14:39:58.614Z,25.27
2018-10-06T14:42:27.130Z,24.47
2018-10-06T14:44:55.438Z,24.75
2018-10-06T14:47:23.746Z,25.05
2018-10-06T14:49:52.106Z,25.75
2018-10-06T14:52:20.658Z,25.72
2018-10-06T14:54:49.160Z,25.23
2018-10-06T14:57:17.716Z,27.05
2018-10-06T14:59:46.138Z,25.84
2018-10-06T15:02:14.610Z,26.22
2018-10-06T15:04:42.966Z,26.61
2018-10-06T15:07:11.310Z,26.31
2018-10-06T15:09:39.603Z,26.61
2018-10-06T15:12:08.048Z,26.46
2018-10-06T15:14:36.396Z,26.52
2018-10-06T15:17:04.713Z,27.02
2018-10-06T15:19:33.044Z,27.46
2018-10-06T15:22:01.354Z,28.02
2018-10-06T15:24:29.852Z,28.16
2018-10-06T15:26:58.224Z,28.91
2018-10-06T15:29:26.562Z,28.55
2018-10-06T15:31:56.341Z,29.09
2018-10-06T15:34:25.380Z,29.33
2018-10-06T15:36:53.688Z,29.64
2018-10-06T15:39:22.039Z,29.61
2018-10-06T15:41:50.413Z,29.72
2018-10-06T15:44:18.713Z,30.22
2018-10-06T15:46:47.072Z,30.82
2018-10-06T15:49:15.356Z,30.66
2018-10-06T15:51:43.702Z,30.41
2018-10-06T15:54:12.070Z,30.24
2018-10-06T15:56:40.386Z,29.91
2018-10-06T15:59:08.644Z,30.68
2018-10-06T16:01:37.208Z,30.52
2018-10-06T16:04:05.585Z,30.59
2018-10-06T16:06:34.003Z,31.50
2018-10-06T16:09:02.427Z,31.19
2018-10-06T16:11:30.993Z,31.76
2018-10-06T16:13:59.274Z,31.60
2018-10-06T16:16:27.606Z,31.70
2018-10-06T16:18:55.905Z,31.60
2018-10-06T16:21:24.208Z,31.91
2018-10-06T16:23:52.434Z,31.94
2018-10-06T16:26:20.833Z,32.54
2018-10-06T16:28:49.300Z,32.74
2018-10-06T16:32:10.714Z,33.08
2018-10-06T16:34:39.129Z,33.36
2018-10-06T16:37:07.395Z,33.12
2018-10-06T16:39:35.902Z,33.38
2018-10-06T16:42:04.233Z,33.30
2018-10-06T16:44:32.660Z,33.76
2018-10-06T16:47:00.994Z,33.62
2018-10-06T16:49:29.316Z,33.86
2018-10-06T16:51:57.615Z,33.99
2018-10-06T16:54:25.978Z,34.59
2018-10-06T16:56:54.438Z,34.90
2018-10-06T16:59:22.767Z,34.36
2018-10-06T17:01:51.131Z,34.51
2018-10-06T17:04:19.374Z,35.16
2018-10-06T17:06:47.713Z,34.84
2018-10-06T17:09:16.131Z,35.30
2018-10-06T17:11:44.426Z,35.36
2018-10-06T17:14:12.747Z,34.97
2018-10-06T17:16:41.038Z,34.92
2018-10-06T17:19:09.404Z,35.27
2018-10-06T17:21:37.700Z,34.94
2018-10-06T17:24:06.885Z,35.36
2018-10-06T17:26:35.172Z,35.27
2018-10-06T17:29:03.444Z,35.00
2018-10-06T17:31:31.715Z,35.37
2018-10-06T17:34:00.064Z,34.82
2018-10-06T17:36:28.530Z,35.30
2018-10-06T17:38:57.301Z,35.57
2018-10-06T17:41:25.544Z,35.84
2018-10-06T17:43:53.992Z,35.73
2018-10-06T17:46:22.635Z,35.93
2018-10-06T17:48:50.949Z,35.69
2018-10-06T17:51:19.434Z,36.49
2018-10-06T17:53:47.803Z,36.47
2018-10-06T17:56:16.220Z,36.72
2018-10-06T17:58:44.677Z,36.76
2018-10-06T18:01:13.897Z,36.64
2018-10-06T18:03:42.254Z,37.10
2018-10-06T18:06:10.696Z,37.19
2018-10-06T18:08:39.009Z,37.39
2018-10-06T18:11:07.513Z,37.30
2018-10-06T18:13:35.970Z,37.65
2018-10-06T18:16:05.180Z,37.89
2018-10-06T18:18:33.623Z,38.54
2018-10-06T18:21:02.125Z,38.50
2018-10-06T18:23:30.429Z,37.90
2018-10-06T18:25:58.772Z,37.85
2018-10-06T18:28:29.785Z,38.00
2018-10-06T18:30:58.445Z,38.16
2018-10-06T18:33:26.743Z,37.84
2018-10-06T18:35:55.099Z,38.54
2018-10-06T18:38:23.413Z,38.55
2018-10-06T18:40:51.730Z,38.54
2018-10-06T18:43:20.172Z,38.42
2018-10-06T18:45:48.496Z,38.89
2018-10-06T18:48:16.796Z,39.17
2018-10-06T18:50:45.081Z,39.49
2018-10-06T18:53:13.424Z,39.91
2018-10-06T18:55:41.809Z,40.52
2018-10-06T18:58:10.084Z,41.10
2018-10-06T19:00:38.549Z,41.17
2018-10-06T19:03:07.510Z,41.26
2018-10-06T19:05:35.733Z,41.30
2018-10-06T19:08:04.082Z,42.17
2018-10-06T19:10:34.000Z,42.03
2018-10-06T19:13:02.304Z,43.02
2018-10-06T19:15:30.666Z,44.28
2018-10-06T19:22:10.781Z,44.88
2018-10-06T19:24:39.265Z,45.17
2018-10-06T19:27:07.622Z,44.45
2018-10-06T19:29:36.094Z,45.02
2018-10-06T19:32:04.540Z,44.44
2018-10-06T19:34:32.892Z,44.65
2018-10-06T19:37:01.242Z,44.42
2018-10-06T19:39:29.704Z,44.82
2018-10-06T19:41:58.045Z,46.60
2018-10-06T19:44:26.562Z,46.46
2018-10-06T19:46:54.982Z,46.22
2018-10-06T19:49:23.426Z,46.19
2018-10-06T19:51:51.737Z,45.78
2018-10-06T19:54:21.796Z,45.07
2018-10-06T19:56:52.395Z,45.10
2018-10-06T19:59:20.670Z,46.01
2018-10-06T20:01:49.113Z,45.68
2018-10-06T20:04:17.575Z,45.89
2018-10-06T20:06:45.922Z,45.27
2018-10-06T20:09:14.273Z,46.03
2018-10-06T20:11:42.671Z,46.13
2018-10-06T20:14:11.003Z,46.01
2018-10-06T20:16:39.467Z,46.04
2018-10-06T20:19:07.943Z,46.13
2018-10-06T20:21:36.356Z,45.68
2018-10-06T20:24:04.803Z,46.40
2018-10-06T20:26:33.240Z,45.84
2018-10-06T20:29:02.237Z,46.59
2018-10-06T20:31:30.647Z,46.70
2018-10-06T20:33:59.872Z,46.15
2018-10-06T20:36:28.218Z,46.58
2018-10-06T20:38:56.597Z,46.48
2018-10-06T20:41:24.944Z,47.14
2018-10-06T20:43:53.266Z,47.11
2018-10-06T20:46:21.699Z,47.22
2018-10-06T20:48:50.090Z,47.37
2018-10-06T20:51:18.416Z,45.61
2018-10-06T20:53:46.747Z,46.45
2018-10-06T20:56:15.048Z,45.16
2018-10-06T20:58:43.452Z,45.58
2018-10-06T21:01:11.732Z,45.03
2018-10-06T21:03:40.013Z,45.64
2018-10-06T21:06:08.550Z,46.81
2018-10-06T21:08:36.868Z,46.64
2018-10-06T21:11:05.166Z,46.26
2018-10-06T21:13:33.476Z,45.25
2018-10-06T21:16:01.816Z,45.65
2018-10-06T21:18:30.378Z,45.66
2018-10-06T21:20:58.716Z,46.98
2018-10-06T21:23:27.076Z,46.99
2018-10-06T21:25:58.301Z,47.73
2018-10-06T21:28:26.590Z,46.16
2018-10-06T21:30:55.059Z,45.95
2018-10-06T21:33:23.487Z,46.38
2018-10-06T21:35:51.824Z,46.36
2018-10-06T21:38:20.488Z,46.66
2018-10-06T21:40:49.091Z,46.39
2018-10-06T21:43:17.357Z,45.93
2018-10-06T21:45:45.798Z,45.31
2018-10-06T21:48:14.192Z,45.27
2018-10-06T21:50:42.511Z,45.96
2018-10-06T21:53:10.818Z,46.11
2018-10-06T21:55:39.185Z,46.48
2018-10-06T21:58:07.475Z,45.53
2018-10-06T22:00:35.760Z,45.30
2018-10-06T22:03:04.182Z,45.01
2018-10-06T22:05:32.512Z,45.81
2018-10-06T22:08:00.860Z,45.87
2018-10-06T22:10:29.182Z,45.53
2018-10-06T22:12:57.485Z,45.79
2018-10-06T22:15:25.818Z,45.50
2018-10-06T22:17:54.127Z,45.77
2018-10-06T22:20:22.407Z,46.01
2018-10-06T22:22:50.834Z,45.98
2018-10-06T22:25:19.356Z,47.03
2018-10-06T22:27:47.668Z,46.49
2018-10-06T22:30:15.968Z,46.91
2018-10-06T22:32:44.277Z,46.50
2018-10-06T22:35:12.600Z,46.15
2018-10-06T22:37:40.962Z,46.65
2018-10-06T22:40:09.318Z,46.15
2018-10-06T22:42:37.821Z,46.20
2018-10-06T22:45:06.847Z,48.13
2018-10-06T22:47:35.211Z,46.85
2018-10-06T22:50:03.630Z,47.11
2018-10-06T22:52:31.889Z,47.44
2018-10-06T22:55:00.254Z,47.04
2018-10-06T22:57:28.740Z,47.10
2018-10-06T22:59:57.113Z,47.53
2018-10-06T23:02:25.529Z,47.02
2018-10-06T23:04:53.890Z,47.59
2018-10-06T23:07:22.534Z,46.98
2018-10-06T23:09:51.005Z,46.54
2018-10-06T23:12:19.417Z,47.21
2018-10-06T23:14:47.795Z,46.68
2018-10-06T23:17:18.551Z,46.88
2018-10-06T23:19:47.540Z,47.73
2018-10-06T23:22:16.000Z,47.10
2018-10-06T23:24:45.065Z,46.93
2018-10-06T23:27:14.274Z,47.71
2018-10-06T23:29:42.550Z,47.75
2018-10-06T23:32:10.820Z,47.27
2018-10-06T23:34:39.145Z,47.41
2018-10-06T23:37:07.802Z,47.51
2018-10-06T23:39:36.114Z,47.30
2018-10-06T23:42:04.960Z,48.41
2018-10-06T23:44:33.509Z,48.01
2018-10-06T23:47:02.719Z,48.71
2018-10-06T23:49:30.992Z,47.81
2018-10-06T23:51:59.321Z,48.21
2018-10-06T23:54:27.746Z,47.95
2018-10-06T23:56:56.066Z,47.48
2018-10-06T23:59:24.351Z,48.64
